sensor_id;sensor_type;location;lat;lon;timestamp;pressure;altitude;pressure_sealevel;temperature;humidity
10688;BME280;5392;42.688;23.298;2023-04-07T00:02:05;57459.34;;;-144.48;73.99
10688;BME280;5392;42.688;23.298;2023-04-07T00:04:32;57453.09;;;-144.48;73.66
10688;BME280;5392;42.688;23.298;2023-04-07T00:06:59;57448.91;;;-144.48;74.03
10688;BME280;5392;42.688;23.298;2023-04-07T00:09:26;57440.56;;;-144.48;73.72
10688;BME280;5392;42.688;23.298;2023-04-07T00:11:53;57459.34;;;-144.48;74.47
10688;BME280;5392;42.688;23.298;2023-04-07T00:14:19;57423.88;;;-144.48;74.44
10688;BME280;5392;42.688;23.298;2023-04-07T00:16:46;57425.94;;;-144.48;75.03
10688;BME280;5392;42.688;23.298;2023-04-07T00:19:12;57455.16;;;-144.48;75.06
10688;BME280;5392;42.688;23.298;2023-04-07T00:21:39;57415.50;;;-144.48;75.12
10688;BME280;5392;42.688;23.298;2023-04-07T00:24:06;57463.53;;;-144.48;75.00
10688;BME280;5392;42.688;23.298;2023-04-07T00:26:33;57457.25;;;-144.48;75.04
10688;BME280;5392;42.688;23.298;2023-04-07T00:28:59;57465.59;;;-144.48;74.39
10688;BME280;5392;42.688;23.298;2023-04-07T00:31:26;57446.81;;;-144.48;75.06
10688;BME280;5392;42.688;23.298;2023-04-07T00:33:53;57448.91;;;-144.48;74.56
10688;BME280;5392;42.688;23.298;2023-04-07T00:36:21;57455.16;;;-144.48;74.44
10688;BME280;5392;42.688;23.298;2023-04-07T00:38:48;57442.66;;;-144.48;74.28
10688;BME280;5392;42.688;23.298;2023-04-07T00:41:15;57438.47;;;-144.48;74.16
10688;BME280;5392;42.688;23.298;2023-04-07T00:43:42;57484.41;;;-144.48;74.39
10688;BME280;5392;42.688;23.298;2023-04-07T00:46:08;57480.22;;;-144.48;74.54
10688;BME280;5392;42.688;23.298;2023-04-07T00:48:35;57471.88;;;-144.48;73.72
10688;BME280;5392;42.688;23.298;2023-04-07T00:51:03;57451.00;;;-144.48;73.90
10688;BME280;5392;42.688;23.298;2023-04-07T00:53:30;57446.81;;;-144.48;73.64
10688;BME280;5392;42.688;23.298;2023-04-07T00:55:57;57467.69;;;-144.48;73.35
10688;BME280;5392;42.688;23.298;2023-04-07T00:58:24;57461.44;;;-144.48;73.21
10688;BME280;5392;42.688;23.298;2023-04-07T01:01:01;57428.03;;;-144.48;73.09
10688;BME280;5392;42.688;23.298;2023-04-07T01:03:34;57488.56;;;-144.48;73.07
10688;BME280;5392;42.688;23.298;2023-04-07T01:06:04;57480.22;;;-144.48;73.33
10688;BME280;5392;42.688;23.298;2023-04-07T01:14:19;57471.88;;;-144.48;74.72
10688;BME280;5392;42.688;23.298;2023-04-07T01:16:50;57482.31;;;-144.48;74.97
10688;BME280;5392;42.688;23.298;2023-04-07T01:22:14;57476.03;;;-144.48;75.15
10688;BME280;5392;42.688;23.298;2023-04-07T01:27:35;57398.81;;;-144.48;75.23
10688;BME280;5392;42.688;23.298;2023-04-07T01:30:06;57419.69;;;-144.48;74.81
10688;BME280;5392;42.688;23.298;2023-04-07T01:32:35;57476.03;;;-144.48;74.72
10688;BME280;5392;42.688;23.298;2023-04-07T01:35:03;57476.03;;;-144.48;74.92
10688;BME280;5392;42.688;23.298;2023-04-07T01:37:32;57413.44;;;-144.48;74.61
10688;BME280;5392;42.688;23.298;2023-04-07T01:39:59;57444.72;;;-144.48;74.63
10688;BME280;5392;42.688;23.298;2023-04-07T01:42:27;57471.88;;;-144.48;74.22
10688;BME280;5392;42.688;23.298;2023-04-07T01:44:55;57473.97;;;-144.48;73.28
10688;BME280;5392;42.688;23.298;2023-04-07T01:47:22;57463.53;;;-144.48;72.38
10688;BME280;5392;42.688;23.298;2023-04-07T01:49:53;57440.56;;;-144.48;72.10
10688;BME280;5392;42.688;23.298;2023-04-07T01:52:21;57461.44;;;-144.48;72.48
10688;BME280;5392;42.688;23.298;2023-04-07T01:54:48;57465.59;;;-144.48;71.63
10688;BME280;5392;42.688;23.298;2023-04-07T01:57:15;57421.78;;;-144.48;71.88
10688;BME280;5392;42.688;23.298;2023-04-07T01:59:41;57417.59;;;-144.48;71.64
10688;BME280;5392;42.688;23.298;2023-04-07T02:02:08;57473.97;;;-144.48;71.60
10688;BME280;5392;42.688;23.298;2023-04-07T02:04:48;57444.72;;;-144.48;70.38
10688;BME280;5392;42.688;23.298;2023-04-07T02:07:21;57438.47;;;-144.48;69.88
10688;BME280;5392;42.688;23.298;2023-04-07T02:09:53;57425.94;;;-144.48;70.21
10688;BME280;5392;42.688;23.298;2023-04-07T02:12:22;57430.13;;;-144.48;70.29
10688;BME280;5392;42.688;23.298;2023-04-07T02:14:52;57423.88;;;-144.48;70.06
10688;BME280;5392;42.688;23.298;2023-04-07T02:17:21;57461.44;;;-144.48;69.67
10688;BME280;5392;42.688;23.298;2023-04-07T02:19:50;57448.91;;;-144.48;69.66
10688;BME280;5392;42.688;23.298;2023-04-07T02:22:18;57438.47;;;-144.48;69.05
10688;BME280;5392;42.688;23.298;2023-04-07T02:24:45;57482.31;;;-144.48;68.61
10688;BME280;5392;42.688;23.298;2023-04-07T02:27:12;57444.72;;;-144.48;68.55
10688;BME280;5392;42.688;23.298;2023-04-07T02:29:38;57417.59;;;-144.48;68.57
10688;BME280;5392;42.688;23.298;2023-04-07T02:32:05;57398.81;;;-144.48;68.11
10688;BME280;5392;42.688;23.298;2023-04-07T02:34:32;57471.88;;;-144.48;68.00
10688;BME280;5392;42.688;23.298;2023-04-07T02:36:58;57473.97;;;-144.48;68.31
10688;BME280;5392;42.688;23.298;2023-04-07T02:39:25;57457.25;;;-144.48;67.68
10688;BME280;5392;42.688;23.298;2023-04-07T02:41:52;57430.13;;;-144.48;67.85
10688;BME280;5392;42.688;23.298;2023-04-07T02:44:18;57425.94;;;-144.48;69.19
10688;BME280;5392;42.688;23.298;2023-04-07T02:46:45;57465.59;;;-144.48;74.64
10688;BME280;5392;42.688;23.298;2023-04-07T02:49:12;57438.47;;;-144.48;79.59
10688;BME280;5392;42.688;23.298;2023-04-07T02:51:38;57476.03;;;-144.48;82.39
10688;BME280;5392;42.688;23.298;2023-04-07T02:54:05;57461.44;;;-144.48;85.60
10688;BME280;5392;42.688;23.298;2023-04-07T02:56:31;57459.34;;;-144.48;88.74
10688;BME280;5392;42.688;23.298;2023-04-07T02:58:58;57459.34;;;-144.48;92.39
10688;BME280;5392;42.688;23.298;2023-04-07T03:01:25;57448.91;;;-144.48;93.59
10688;BME280;5392;42.688;23.298;2023-04-07T03:03:53;57448.91;;;-144.48;93.91
10688;BME280;5392;42.688;23.298;2023-04-07T03:06:20;57434.28;;;-144.48;89.18
10688;BME280;5392;42.688;23.298;2023-04-07T03:08:46;57417.59;;;-144.48;85.34
10688;BME280;5392;42.688;23.298;2023-04-07T03:11:13;57453.09;;;-144.48;80.45
10688;BME280;5392;42.688;23.298;2023-04-07T03:13:40;57461.44;;;-144.48;74.22
10688;BME280;5392;42.688;23.298;2023-04-07T03:16:06;57457.25;;;-144.48;72.17
10688;BME280;5392;42.688;23.298;2023-04-07T03:18:33;57405.06;;;-144.48;71.34
10688;BME280;5392;42.688;23.298;2023-04-07T03:20:59;57421.78;;;-144.48;69.72
10688;BME280;5392;42.688;23.298;2023-04-07T03:23:26;57430.13;;;-144.48;69.62
10688;BME280;5392;42.688;23.298;2023-04-07T03:25:54;57469.78;;;-144.48;69.03
10688;BME280;5392;42.688;23.298;2023-04-07T03:28:22;57463.53;;;-144.48;70.12
10688;BME280;5392;42.688;23.298;2023-04-07T03:30:49;57417.59;;;-144.48;69.82
10688;BME280;5392;42.688;23.298;2023-04-07T03:33:16;57476.03;;;-144.48;70.06
10688;BME280;5392;42.688;23.298;2023-04-07T03:35:43;57461.44;;;-144.48;69.90
10688;BME280;5392;42.688;23.298;2023-04-07T03:38:10;57442.66;;;-144.48;70.00
10688;BME280;5392;42.688;23.298;2023-04-07T03:40:36;57434.28;;;-144.48;70.18
10688;BME280;5392;42.688;23.298;2023-04-07T03:43:03;57413.44;;;-144.48;69.81
10688;BME280;5392;42.688;23.298;2023-04-07T03:45:29;57486.47;;;-144.48;69.74
10688;BME280;5392;42.688;23.298;2023-04-07T03:47:56;57471.88;;;-144.48;70.39
10688;BME280;5392;42.688;23.298;2023-04-07T03:50:23;57425.94;;;-144.48;70.00
10688;BME280;5392;42.688;23.298;2023-04-07T03:52:50;57461.44;;;-144.48;69.92
10688;BME280;5392;42.688;23.298;2023-04-07T03:55:17;57453.09;;;-144.48;70.27
10688;BME280;5392;42.688;23.298;2023-04-07T03:57:43;57440.56;;;-144.48;70.16
10688;BME280;5392;42.688;23.298;2023-04-07T04:00:10;57448.91;;;-144.48;69.66
10688;BME280;5392;42.688;23.298;2023-04-07T04:02:38;57425.94;;;-144.48;69.28
10688;BME280;5392;42.688;23.298;2023-04-07T04:05:05;57419.69;;;-144.48;69.06
10688;BME280;5392;42.688;23.298;2023-04-07T04:07:31;57409.25;;;-144.48;69.63
10688;BME280;5392;42.688;23.298;2023-04-07T04:09:59;57436.38;;;-144.48;69.65
10688;BME280;5392;42.688;23.298;2023-04-07T04:12:25;57461.44;;;-144.48;68.95
10688;BME280;5392;42.688;23.298;2023-04-07T04:14:52;57400.91;;;-144.48;69.23
10688;BME280;5392;42.688;23.298;2023-04-07T04:17:19;57448.91;;;-144.48;68.76
10688;BME280;5392;42.688;23.298;2023-04-07T04:19:46;57461.44;;;-144.48;68.69
10688;BME280;5392;42.688;23.298;2023-04-07T04:22:13;57478.13;;;-144.48;67.80
10688;BME280;5392;42.688;23.298;2023-04-07T04:24:39;57448.91;;;-144.48;68.24
10688;BME280;5392;42.688;23.298;2023-04-07T04:27:07;57478.13;;;-144.48;68.07
10688;BME280;5392;42.688;23.298;2023-04-07T04:29:34;57440.56;;;-144.48;67.94
10688;BME280;5392;42.688;23.298;2023-04-07T04:32:00;57409.25;;;-144.48;67.68
10688;BME280;5392;42.688;23.298;2023-04-07T04:34:27;57463.53;;;-144.48;67.82
10688;BME280;5392;42.688;23.298;2023-04-07T04:36:54;57442.66;;;-144.48;67.50
10688;BME280;5392;42.688;23.298;2023-04-07T04:39:20;57405.06;;;-144.48;67.06
10688;BME280;5392;42.688;23.298;2023-04-07T04:41:47;57428.03;;;-144.48;69.21
10688;BME280;5392;42.688;23.298;2023-04-07T04:44:14;57442.66;;;-144.48;75.00
10688;BME280;5392;42.688;23.298;2023-04-07T04:46:40;57444.72;;;-144.48;80.11
10688;BME280;5392;42.688;23.298;2023-04-07T04:49:07;57430.13;;;-144.48;83.35
10688;BME280;5392;42.688;23.298;2023-04-07T04:51:34;57471.88;;;-144.48;84.84
10688;BME280;5392;42.688;23.298;2023-04-07T04:54:00;57446.81;;;-144.48;83.79
10688;BME280;5392;42.688;23.298;2023-04-07T04:56:29;57421.78;;;-144.48;85.99
10688;BME280;5392;42.688;23.298;2023-04-07T04:58:56;57432.22;;;-144.48;84.99
10688;BME280;5392;42.688;23.298;2023-04-07T05:01:22;57413.44;;;-144.48;86.20
10688;BME280;5392;42.688;23.298;2023-04-07T05:03:49;57398.81;;;-144.48;86.67
10688;BME280;5392;42.688;23.298;2023-04-07T05:06:16;57411.34;;;-144.48;88.66
10688;BME280;5392;42.688;23.298;2023-04-07T05:08:43;57440.56;;;-144.48;89.16
10688;BME280;5392;42.688;23.298;2023-04-07T05:11:10;57430.13;;;-144.48;87.92
10688;BME280;5392;42.688;23.298;2023-04-07T05:13:37;57476.03;;;-144.48;86.74
10688;BME280;5392;42.688;23.298;2023-04-07T05:16:04;57444.72;;;-144.48;83.45
10688;BME280;5392;42.688;23.298;2023-04-07T05:18:32;57428.03;;;-144.48;82.07
10688;BME280;5392;42.688;23.298;2023-04-07T05:20:58;57461.44;;;-144.48;79.49
10688;BME280;5392;42.688;23.298;2023-04-07T05:23:27;57430.13;;;-144.48;73.48
10688;BME280;5392;42.688;23.298;2023-04-07T05:25:53;57440.56;;;-144.48;65.34
10688;BME280;5392;42.688;23.298;2023-04-07T05:28:21;57459.34;;;-144.48;65.20
10688;BME280;5392;42.688;23.298;2023-04-07T05:30:47;57438.47;;;-144.48;65.34
10688;BME280;5392;42.688;23.298;2023-04-07T05:33:14;57421.78;;;-144.48;65.66
10688;BME280;5392;42.688;23.298;2023-04-07T05:35:43;57430.13;;;-144.48;64.04
10688;BME280;5392;42.688;23.298;2023-04-07T05:38:10;57455.16;;;-144.48;63.77
10688;BME280;5392;42.688;23.298;2023-04-07T05:40:38;57419.69;;;-144.48;64.05
10688;BME280;5392;42.688;23.298;2023-04-07T05:43:04;57492.75;;;-144.48;64.77
10688;BME280;5392;42.688;23.298;2023-04-07T05:45:31;57446.81;;;-144.48;67.52
10688;BME280;5392;42.688;23.298;2023-04-07T05:47:58;57453.09;;;-144.48;70.97
10688;BME280;5392;42.688;23.298;2023-04-07T05:50:24;57469.78;;;-144.48;71.70
10688;BME280;5392;42.688;23.298;2023-04-07T05:52:51;57476.03;;;-144.48;71.26
10688;BME280;5392;42.688;23.298;2023-04-07T05:55:18;57453.09;;;-144.48;71.91
10688;BME280;5392;42.688;23.298;2023-04-07T05:57:44;57432.22;;;-144.48;73.19
10688;BME280;5392;42.688;23.298;2023-04-07T06:00:11;57440.56;;;-144.48;72.99
10688;BME280;5392;42.688;23.298;2023-04-07T06:02:39;57434.28;;;-144.48;70.37
10688;BME280;5392;42.688;23.298;2023-04-07T06:05:06;57453.09;;;-144.48;71.06
10688;BME280;5392;42.688;23.298;2023-04-07T06:07:33;57423.88;;;-144.48;67.03
10688;BME280;5392;42.688;23.298;2023-04-07T06:09:59;57438.47;;;-144.48;61.50
10688;BME280;5392;42.688;23.298;2023-04-07T06:12:26;57467.69;;;-144.48;59.90
10688;BME280;5392;42.688;23.298;2023-04-07T06:14:54;57442.66;;;-144.48;59.72
10688;BME280;5392;42.688;23.298;2023-04-07T06:17:22;57459.34;;;-144.48;60.02
10688;BME280;5392;42.688;23.298;2023-04-07T06:19:49;57451.00;;;-144.48;59.83
10688;BME280;5392;42.688;23.298;2023-04-07T06:22:15;57442.66;;;-144.48;57.75
10688;BME280;5392;42.688;23.298;2023-04-07T06:24:42;57419.69;;;-144.48;58.87
10688;BME280;5392;42.688;23.298;2023-04-07T06:27:09;57442.66;;;-144.48;57.54
10688;BME280;5392;42.688;23.298;2023-04-07T06:29:35;57459.34;;;-144.48;56.86
10688;BME280;5392;42.688;23.298;2023-04-07T06:32:02;57451.00;;;-144.48;54.03
10688;BME280;5392;42.688;23.298;2023-04-07T06:34:29;57444.72;;;-144.48;52.22
10688;BME280;5392;42.688;23.298;2023-04-07T06:36:56;57455.16;;;-144.48;51.16
10688;BME280;5392;42.688;23.298;2023-04-07T06:39:25;57417.59;;;-144.48;51.61
10688;BME280;5392;42.688;23.298;2023-04-07T06:41:52;57459.34;;;-144.48;51.89
10688;BME280;5392;42.688;23.298;2023-04-07T06:44:19;57419.69;;;-144.48;54.66
10688;BME280;5392;42.688;23.298;2023-04-07T06:46:45;57459.34;;;-144.48;55.39
10688;BME280;5392;42.688;23.298;2023-04-07T06:49:14;57438.47;;;-144.48;56.20
10688;BME280;5392;42.688;23.298;2023-04-07T06:51:42;57425.94;;;-144.48;56.87
10688;BME280;5392;42.688;23.298;2023-04-07T06:54:08;57438.47;;;-144.48;57.44
10688;BME280;5392;42.688;23.298;2023-04-07T06:56:41;57471.88;;;-144.48;57.27
10688;BME280;5392;42.688;23.298;2023-04-07T06:59:08;57440.56;;;-144.48;57.16
10688;BME280;5392;42.688;23.298;2023-04-07T07:01:35;57455.16;;;-144.48;56.71
10688;BME280;5392;42.688;23.298;2023-04-07T07:04:03;57419.69;;;-144.48;56.99
10688;BME280;5392;42.688;23.298;2023-04-07T07:06:31;57415.50;;;-144.48;57.19
10688;BME280;5392;42.688;23.298;2023-04-07T07:08:58;57428.03;;;-144.48;56.57
10688;BME280;5392;42.688;23.298;2023-04-07T07:11:26;57430.13;;;-144.48;56.37
10688;BME280;5392;42.688;23.298;2023-04-07T07:13:52;57407.16;;;-144.48;55.45
10688;BME280;5392;42.688;23.298;2023-04-07T07:16:19;57455.16;;;-144.48;54.61
10688;BME280;5392;42.688;23.298;2023-04-07T07:18:46;57455.16;;;-144.48;54.79
10688;BME280;5392;42.688;23.298;2023-04-07T07:21:13;57438.47;;;-144.48;55.17
10688;BME280;5392;42.688;23.298;2023-04-07T07:23:39;57430.13;;;-144.48;56.86
10688;BME280;5392;42.688;23.298;2023-04-07T07:26:06;57438.47;;;-144.48;57.44
10688;BME280;5392;42.688;23.298;2023-04-07T07:28:33;57417.59;;;-144.48;58.03
10688;BME280;5392;42.688;23.298;2023-04-07T07:30:59;57436.38;;;-144.48;58.40
10688;BME280;5392;42.688;23.298;2023-04-07T07:33:26;57440.56;;;-144.48;58.16
10688;BME280;5392;42.688;23.298;2023-04-07T07:35:53;57473.97;;;-144.48;58.83
10688;BME280;5392;42.688;23.298;2023-04-07T07:38:19;57453.09;;;-144.48;58.78
10688;BME280;5392;42.688;23.298;2023-04-07T07:40:46;57444.72;;;-144.48;58.69
10688;BME280;5392;42.688;23.298;2023-04-07T07:43:13;57436.38;;;-144.48;58.70
10688;BME280;5392;42.688;23.298;2023-04-07T07:45:39;57423.88;;;-144.48;58.15
10688;BME280;5392;42.688;23.298;2023-04-07T07:48:06;57465.59;;;-144.48;58.54
10688;BME280;5392;42.688;23.298;2023-04-07T07:50:33;57446.81;;;-144.48;59.12
10688;BME280;5392;42.688;23.298;2023-04-07T07:52:59;57421.78;;;-144.48;59.03
10688;BME280;5392;42.688;23.298;2023-04-07T07:55:26;57453.09;;;-144.48;59.51
10688;BME280;5392;42.688;23.298;2023-04-07T07:57:53;57430.13;;;-144.48;59.03
10688;BME280;5392;42.688;23.298;2023-04-07T08:00:20;57438.47;;;-144.48;59.50
10688;BME280;5392;42.688;23.298;2023-04-07T08:02:46;57451.00;;;-144.48;59.14
10688;BME280;5392;42.688;23.298;2023-04-07T08:05:13;57463.53;;;-144.48;58.99
10688;BME280;5392;42.688;23.298;2023-04-07T08:07:41;57442.66;;;-144.48;59.16
10688;BME280;5392;42.688;23.298;2023-04-07T08:10:26;57446.81;;;-144.48;58.88
10688;BME280;5392;42.688;23.298;2023-04-07T08:12:53;57446.81;;;-144.48;58.82
10688;BME280;5392;42.688;23.298;2023-04-07T08:15:19;57469.78;;;-144.48;58.85
10688;BME280;5392;42.688;23.298;2023-04-07T08:17:46;57382.13;;;-144.48;58.41
10688;BME280;5392;42.688;23.298;2023-04-07T08:20:13;57471.88;;;-144.48;57.97
10688;BME280;5392;42.688;23.298;2023-04-07T08:22:40;57413.44;;;-144.48;58.60
10688;BME280;5392;42.688;23.298;2023-04-07T08:25:08;57446.81;;;-144.48;57.86
10688;BME280;5392;42.688;23.298;2023-04-07T08:27:35;57413.44;;;-144.48;58.08
10688;BME280;5392;42.688;23.298;2023-04-07T08:30:04;57428.03;;;-144.48;58.02
10688;BME280;5392;42.688;23.298;2023-04-07T08:32:35;57421.78;;;-144.48;58.25
10688;BME280;5392;42.688;23.298;2023-04-07T08:35:03;57453.09;;;-144.48;58.04
10688;BME280;5392;42.688;23.298;2023-04-07T08:37:30;57442.66;;;-144.48;58.48
10688;BME280;5392;42.688;23.298;2023-04-07T08:39:57;57425.94;;;-144.48;58.23
10688;BME280;5392;42.688;23.298;2023-04-07T08:42:26;57463.53;;;-144.48;58.18
10688;BME280;5392;42.688;23.298;2023-04-07T08:44:56;57432.22;;;-144.48;58.10
10688;BME280;5392;42.688;23.298;2023-04-07T08:47:27;57425.94;;;-144.48;57.66
10688;BME280;5392;42.688;23.298;2023-04-07T08:50:00;57436.38;;;-144.48;57.71
10688;BME280;5392;42.688;23.298;2023-04-07T08:52:39;57446.81;;;-144.48;57.89
10688;BME280;5392;42.688;23.298;2023-04-07T08:55:07;57428.03;;;-144.48;57.13
10688;BME280;5392;42.688;23.298;2023-04-07T08:57:35;57438.47;;;-144.48;57.52
10688;BME280;5392;42.688;23.298;2023-04-07T09:00:03;57442.66;;;-144.48;57.79
10688;BME280;5392;42.688;23.298;2023-04-07T09:02:38;57405.06;;;-144.48;57.91
10688;BME280;5392;42.688;23.298;2023-04-07T09:05:06;57425.94;;;-144.48;58.12
10688;BME280;5392;42.688;23.298;2023-04-07T09:07:35;57476.03;;;-144.48;57.90
10688;BME280;5392;42.688;23.298;2023-04-07T09:10:02;57396.72;;;-144.48;57.33
10688;BME280;5392;42.688;23.298;2023-04-07T09:12:30;57480.22;;;-144.48;56.71
10688;BME280;5392;42.688;23.298;2023-04-07T09:14:57;57421.78;;;-144.48;57.11
10688;BME280;5392;42.688;23.298;2023-04-07T09:17:25;57455.16;;;-144.48;57.18
10688;BME280;5392;42.688;23.298;2023-04-07T09:19:59;57455.16;;;-144.48;56.78
10688;BME280;5392;42.688;23.298;2023-04-07T09:22:43;57421.78;;;-144.48;56.49
10688;BME280;5392;42.688;23.298;2023-04-07T09:25:15;57432.22;;;-144.48;57.13
10688;BME280;5392;42.688;23.298;2023-04-07T09:28:01;57455.16;;;-144.48;58.15
10688;BME280;5392;42.688;23.298;2023-04-07T09:30:30;57413.44;;;-144.48;58.15
10688;BME280;5392;42.688;23.298;2023-04-07T09:32:58;57392.56;;;-144.48;57.99
10688;BME280;5392;42.688;23.298;2023-04-07T09:35:25;57419.69;;;-144.48;57.59
10688;BME280;5392;42.688;23.298;2023-04-07T09:38:08;57448.91;;;-144.48;57.40
10688;BME280;5392;42.688;23.298;2023-04-07T09:40:35;57432.22;;;-144.48;57.24
10688;BME280;5392;42.688;23.298;2023-04-07T09:43:04;57392.56;;;-144.48;56.69
10688;BME280;5392;42.688;23.298;2023-04-07T09:45:31;57415.50;;;-144.48;57.97
10688;BME280;5392;42.688;23.298;2023-04-07T09:48:05;57403.00;;;-144.48;58.13
10688;BME280;5392;42.688;23.298;2023-04-07T09:50:34;57453.09;;;-144.48;57.85
10688;BME280;5392;42.688;23.298;2023-04-07T09:53:01;57413.44;;;-144.48;58.41
10688;BME280;5392;42.688;23.298;2023-04-07T09:55:30;57438.47;;;-144.48;58.25
10688;BME280;5392;42.688;23.298;2023-04-07T09:58:00;57432.22;;;-144.48;57.65
10688;BME280;5392;42.688;23.298;2023-04-07T10:00:27;57419.69;;;-144.48;57.30
10688;BME280;5392;42.688;23.298;2023-04-07T10:02:54;57421.78;;;-144.48;57.37
10688;BME280;5392;42.688;23.298;2023-04-07T10:05:22;57453.09;;;-144.48;57.04
10688;BME280;5392;42.688;23.298;2023-04-07T10:07:49;57423.88;;;-144.48;57.35
10688;BME280;5392;42.688;23.298;2023-04-07T10:10:17;57440.56;;;-144.48;57.56
10688;BME280;5392;42.688;23.298;2023-04-07T10:12:44;57411.34;;;-144.48;57.36
10688;BME280;5392;42.688;23.298;2023-04-07T10:15:12;57451.00;;;-144.48;57.51
10688;BME280;5392;42.688;23.298;2023-04-07T10:17:46;57400.91;;;-144.48;57.77
10688;BME280;5392;42.688;23.298;2023-04-07T10:20:18;57459.34;;;-144.48;57.08
10688;BME280;5392;42.688;23.298;2023-04-07T10:22:51;57438.47;;;-144.48;57.56
10688;BME280;5392;42.688;23.298;2023-04-07T10:25:21;57436.38;;;-144.48;58.51
10688;BME280;5392;42.688;23.298;2023-04-07T10:27:58;57440.56;;;-144.48;59.29
10688;BME280;5392;42.688;23.298;2023-04-07T10:30:30;57438.47;;;-144.48;59.48
10688;BME280;5392;42.688;23.298;2023-04-07T10:32:57;57446.81;;;-144.48;58.76
10688;BME280;5392;42.688;23.298;2023-04-07T10:35:25;57453.09;;;-144.48;58.79
10688;BME280;5392;42.688;23.298;2023-04-07T10:40:34;57438.47;;;-144.48;60.45
10688;BME280;5392;42.688;23.298;2023-04-07T10:43:04;57440.56;;;-144.48;61.18
10688;BME280;5392;42.688;23.298;2023-04-07T10:45:55;57442.66;;;-144.48;61.07
10688;BME280;5392;42.688;23.298;2023-04-07T10:48:23;57442.66;;;-144.48;61.79
10688;BME280;5392;42.688;23.298;2023-04-07T10:53:32;57480.22;;;-144.48;61.77
10688;BME280;5392;42.688;23.298;2023-04-07T10:56:02;57438.47;;;-144.48;62.56
10688;BME280;5392;42.688;23.298;2023-04-07T10:58:30;57411.34;;;-144.48;62.87
10688;BME280;5392;42.688;23.298;2023-04-07T11:03:31;57413.44;;;-144.48;62.50
10688;BME280;5392;42.688;23.298;2023-04-07T11:06:11;57411.34;;;-144.48;61.96
10688;BME280;5392;42.688;23.298;2023-04-07T11:11:07;57476.03;;;-144.48;61.52
10688;BME280;5392;42.688;23.298;2023-04-07T11:13:41;57461.44;;;-144.48;62.44
10688;BME280;5392;42.688;23.298;2023-04-07T11:16:08;57476.03;;;-144.48;61.97
10688;BME280;5392;42.688;23.298;2023-04-07T11:18:36;57425.94;;;-144.48;62.09
10688;BME280;5392;42.688;23.298;2023-04-07T11:21:03;57480.22;;;-144.48;61.88
10688;BME280;5392;42.688;23.298;2023-04-07T11:23:38;57432.22;;;-144.48;62.28
10688;BME280;5392;42.688;23.298;2023-04-07T11:26:07;57425.94;;;-144.48;61.93
10688;BME280;5392;42.688;23.298;2023-04-07T11:28:36;57428.03;;;-144.48;61.72
10688;BME280;5392;42.688;23.298;2023-04-07T11:31:11;57476.03;;;-144.48;62.44
10688;BME280;5392;42.688;23.298;2023-04-07T11:33:38;57461.44;;;-144.48;63.25
10688;BME280;5392;42.688;23.298;2023-04-07T11:36:06;57425.94;;;-144.48;63.46
10688;BME280;5392;42.688;23.298;2023-04-07T11:38:37;57411.34;;;-144.48;63.48
10688;BME280;5392;42.688;23.298;2023-04-07T11:41:12;57432.22;;;-144.48;63.03
10688;BME280;5392;42.688;23.298;2023-04-07T11:43:39;57457.25;;;-144.48;62.79
10688;BME280;5392;42.688;23.298;2023-04-07T11:48:38;57442.66;;;-144.48;63.35
10688;BME280;5392;42.688;23.298;2023-04-07T11:51:06;57451.00;;;-144.48;63.68
10688;BME280;5392;42.688;23.298;2023-04-07T11:53:40;57423.88;;;-144.48;64.14
10688;BME280;5392;42.688;23.298;2023-04-07T11:56:09;57478.13;;;-144.48;63.65
10688;BME280;5392;42.688;23.298;2023-04-07T11:58:37;57419.69;;;-144.48;63.66
10688;BME280;5392;42.688;23.298;2023-04-07T12:01:05;57415.50;;;-144.48;63.61
10688;BME280;5392;42.688;23.298;2023-04-07T12:03:35;57467.69;;;-144.48;63.23
10688;BME280;5392;42.688;23.298;2023-04-07T12:06:03;57455.16;;;-144.48;62.83
10688;BME280;5392;42.688;23.298;2023-04-07T12:08:41;57465.59;;;-144.48;62.78
10688;BME280;5392;42.688;23.298;2023-04-07T12:11:08;57413.44;;;-144.48;62.66
10688;BME280;5392;42.688;23.298;2023-04-07T12:13:36;57419.69;;;-144.48;63.25
10688;BME280;5392;42.688;23.298;2023-04-07T12:16:03;57451.00;;;-144.48;63.12
10688;BME280;5392;42.688;23.298;2023-04-07T12:18:29;57448.91;;;-144.48;63.31
10688;BME280;5392;42.688;23.298;2023-04-07T12:20:56;57396.72;;;-144.48;63.86
10688;BME280;5392;42.688;23.298;2023-04-07T12:23:24;57453.09;;;-144.48;63.06
10688;BME280;5392;42.688;23.298;2023-04-07T12:25:51;57448.91;;;-144.48;63.10
10688;BME280;5392;42.688;23.298;2023-04-07T12:28:18;57430.13;;;-144.48;63.15
10688;BME280;5392;42.688;23.298;2023-04-07T12:30:45;57444.72;;;-144.48;64.03
10688;BME280;5392;42.688;23.298;2023-04-07T12:33:11;57409.25;;;-144.48;63.69
10688;BME280;5392;42.688;23.298;2023-04-07T12:35:38;57436.38;;;-144.48;64.20
10688;BME280;5392;42.688;23.298;2023-04-07T12:38:05;57442.66;;;-144.48;63.74
10688;BME280;5392;42.688;23.298;2023-04-07T12:40:33;57459.34;;;-144.48;63.45
10688;BME280;5392;42.688;23.298;2023-04-07T12:43:01;57428.03;;;-144.48;63.54
10688;BME280;5392;42.688;23.298;2023-04-07T12:45:28;57417.59;;;-144.48;63.68
10688;BME280;5392;42.688;23.298;2023-04-07T12:47:56;57513.63;;;-144.48;64.09
10688;BME280;5392;42.688;23.298;2023-04-07T12:50:23;57459.34;;;-144.48;63.93
10688;BME280;5392;42.688;23.298;2023-04-07T12:52:50;57463.53;;;-144.48;64.05
10688;BME280;5392;42.688;23.298;2023-04-07T12:55:17;57432.22;;;-144.48;65.28
10688;BME280;5392;42.688;23.298;2023-04-07T12:57:44;57463.53;;;-144.48;65.06
10688;BME280;5392;42.688;23.298;2023-04-07T13:00:11;57455.16;;;-144.48;65.06
10688;BME280;5392;42.688;23.298;2023-04-07T13:02:37;57425.94;;;-144.48;65.05
10688;BME280;5392;42.688;23.298;2023-04-07T13:05:04;57463.53;;;-144.48;64.49
10688;BME280;5392;42.688;23.298;2023-04-07T13:07:31;57486.47;;;-144.48;64.56
10688;BME280;5392;42.688;23.298;2023-04-07T13:10:00;57465.59;;;-144.48;64.41